CA-0582 weather

Bamfield Airstrip
Bamfield, British Columbia, Canada

Public forecast

Using degrees Celsius for public forecast. Weather courtesy of forecast.io.

METAR (pilot weather report)

Report is more than 2 hours old.

Closest report is Tofino / Long Beach Airport, 30.2 nm (55.9 km) WNW. Retrieved 2019/09/19 01:00 UTC (2 hours ago):

CYAZ 190100Z 30008KT 15SM SKC 17/12 A2995 RMK LAST STFD OBS/NEXT 191300UTC SLP142 DENSITY ALT 300FT

TAF (pilot weather forecast)

Forecast is more than 6 hours old.

Closest forecast is Tofino / Long Beach Airport, 30.2 nm (55.9 km) WNW. Retrieved 2019/09/18 18:00 UTC (9 hours ago):

TAF CYAZ 181738Z 1818/1901 VRB03KT P6SM FEW010 BECMG 1819/1821 27008KT RMK NXT FCST WILL BE ISSUED AT 191445Z